Time;durP1;ratioP1;P1;durP2;ratioP2;P2;SDS_P1;SDS_P2;PMS_P1;PMS_P2;Temp;Humidity;BMP_temperature;BMP_pressure;BME280_temperature;BME280_humidity;BME280_pressure;Samples;Min_cycle;Max_cycle;Signal;HPM_P1;HPM_P2
2022/08/22 00:01:39;;;;;;;;;;;25.70;97.60;;;;;;5064745;28;20049;-76
2022/08/22 00:04:40;;;;;;;2.80;2.13;;;25.60;97.60;;;;;;5067774;28;19931;-76
2022/08/22 00:07:14;;;;;;;3.08;1.70;;;25.70;97.70;;;;;;5067563;28;20049;-75
2022/08/22 00:09:41;;;;;;;2.85;1.60;;;25.70;97.70;;;;;;5084183;28;20494;-76
2022/08/22 00:12:32;;;;;;;3.53;2.13;;;25.70;97.70;;;;;;5067498;28;20037;-76
2022/08/22 00:15:05;;;;;;;5.47;1.65;;;25.60;97.70;;;;;;5050684;28;20052;-75
2022/08/22 00:17:38;;;;;;;3.25;1.67;;;25.60;97.70;;;;;;5051676;28;20056;-77
2022/08/22 00:20:11;;;;;;;3.17;1.83;;;25.60;97.70;;;;;;5083721;28;20491;-75
2022/08/22 00:22:43;;;;;;;6.13;2.67;;;25.60;97.80;;;;;;5084166;28;20072;-76
2022/08/22 00:25:48;;;;;;;5.45;1.92;;;25.60;97.80;;;;;;5096179;28;20048;-76
2022/08/22 00:28:24;;;;;;;4.43;1.73;;;25.60;97.90;;;;;;5069691;28;20059;-75
2022/08/22 00:31:15;;;;;;;6.53;2.30;;;25.50;97.90;;;;;;5070037;28;20112;-75
2022/08/22 00:33:55;;;;;;;5.93;2.10;;;25.50;97.90;;;;;;5069978;28;20052;-75
2022/08/22 00:37:01;;;;;;;5.75;1.83;;;25.50;97.90;;;;;;5068368;28;20040;-75
2022/08/22 00:39:38;;;;;;;7.05;1.73;;;25.50;97.90;;;;;;5066402;28;20499;-75
2022/08/22 00:42:21;;;;;;;4.65;2.17;;;25.50;97.80;;;;;;5083590;28;20074;-75
2022/08/22 00:44:51;;;;;;;7.28;2.65;;;25.50;97.90;;;;;;5066649;28;20107;-75
2022/08/22 00:47:37;;;;;;;6.50;1.90;;;25.50;97.80;;;;;;5066298;28;20053;-76
2022/08/22 00:50:42;;;;;;;4.43;1.67;;;25.40;97.80;;;;;;5051550;28;20037;-75
2022/08/22 00:53:24;;;;;;;9.18;1.80;;;25.40;97.70;;;;;;5066138;28;20108;-75
2022/08/22 00:56:10;;;;;;;3.75;2.03;;;25.50;97.60;;;;;;5051019;28;20052;-75
2022/08/22 00:59:08;;;;;;;3.38;1.45;;;25.40;97.50;;;;;;5051256;28;20349;-75
2022/08/22 01:01:46;;;;;;;3.00;1.60;;;25.40;97.40;;;;;;5051284;28;20087;-75
2022/08/22 01:04:25;;;;;;;2.35;1.30;;;25.40;97.40;;;;;;5049654;28;20048;-75
2022/08/22 01:07:15;;;;;;;2.90;1.75;;;25.40;97.30;;;;;;5066412;28;20410;-75
2022/08/22 01:10:05;;;;;;;6.05;1.60;;;25.50;97.20;;;;;;5066168;28;20711;-75
2022/08/22 01:13:02;;;;;;;6.60;1.52;;;25.40;97.10;;;;;;5065643;28;20049;-75
2022/08/22 01:15:33;;;;;;;3.75;1.40;;;25.40;97.00;;;;;;5049432;28;20091;-75
2022/08/22 01:18:26;;;;;;;4.30;1.63;;;25.40;97.00;;;;;;5080897;28;20471;-74
2022/08/22 01:21:12;;;;;;;2.30;1.52;;;25.40;97.00;;;;;;5070471;28;20122;-75
2022/08/22 01:23:58;;;;;;;;;;;25.30;96.90;;;;;;5102959;28;20083;-75
2022/08/22 01:26:50;;;;;;;3.30;1.60;;;25.30;96.90;;;;;;5068809;28;19960;-75
2022/08/22 01:29:40;;;;;;;4.15;1.67;;;25.30;96.90;;;;;;5101989;28;20430;-75
2022/08/22 01:32:44;;;;;;;6.05;2.47;;;25.30;96.80;;;;;;5103224;28;20110;-75
2022/08/22 01:35:50;;;;;;;3.78;1.63;;;25.30;96.80;;;;;;5102391;28;20075;-75
2022/08/22 01:38:50;;;;;;;3.70;1.58;;;25.30;96.80;;;;;;5068747;28;20135;-75
2022/08/22 01:41:42;;;;;;;2.50;1.48;;;25.30;96.80;;;;;;5085496;28;20044;-75
2022/08/22 01:44:36;;;;;;;2.83;1.50;;;25.30;96.80;;;;;;5102390;28;20197;-75
2022/08/22 01:47:10;;;;;;;3.60;1.20;;;25.30;96.80;;;;;;5070269;28;20556;-75
2022/08/22 01:49:47;;;;;;;3.05;1.63;;;25.20;96.80;;;;;;5070098;28;20055;-76
2022/08/22 01:52:39;;;;;;;3.08;1.30;;;25.20;96.90;;;;;;5068655;28;20059;-75
2022/08/22 01:55:07;;;;;;;5.65;1.55;;;25.20;96.90;;;;;;5102428;28;20139;-76
2022/08/22 01:57:51;;;;;;;3.67;1.70;;;25.10;97.00;;;;;;5102088;28;20171;-75
2022/08/22 02:00:22;;;;;;;4.75;1.25;;;25.10;97.00;;;;;;5052000;28;20072;-75
2022/08/22 02:03:31;;;;;;;2.83;1.30;;;25.10;97.00;;;;;;5069778;28;20040;-75
2022/08/22 02:06:13;;;;;;;4.38;1.40;;;25.10;97.10;;;;;;5071829;28;20052;-76
2022/08/22 02:08:56;;;;;;;5.05;1.67;;;25.00;97.00;;;;;;5068168;28;20834;-75
2022/08/22 02:11:47;;;;;;;2.47;1.20;;;25.00;97.10;;;;;;5084804;28;20041;-75
2022/08/22 02:14:37;;;;;;;3.90;1.58;;;25.00;97.10;;;;;;5067258;28;20042;-74
2022/08/22 02:17:20;;;;;;;3.42;1.40;;;25.00;97.10;;;;;;5084467;28;20041;-75
2022/08/22 02:20:16;;;;;;;2.58;1.70;;;24.90;97.20;;;;;;5084902;28;20083;-75
2022/08/22 02:22:56;;;;;;;3.42;1.88;;;24.90;97.20;;;;;;5084823;28;20544;-75
2022/08/22 02:25:29;;;;;;;5.68;2.22;;;24.90;97.30;;;;;;5084113;28;20040;-75
2022/08/22 02:28:12;;;;;;;5.22;1.58;;;24.80;97.20;;;;;;5068899;28;20063;-75
2022/08/22 02:30:46;;;;;;;3.45;1.45;;;24.80;97.30;;;;;;5084638;28;20123;-76
2022/08/22 02:33:45;;;;;;;2.72;1.25;;;24.80;97.20;;;;;;5050620;28;20143;-75
2022/08/22 02:36:38;;;;;;;2.40;1.02;;;24.80;97.20;;;;;;5101641;28;20135;-75
2022/08/22 02:39:26;;;;;;;4.05;1.25;;;24.80;97.10;;;;;;5101559;28;20048;-75
2022/08/22 02:42:10;;;;;;;2.70;1.33;;;24.80;97.20;;;;;;5067777;28;20056;-76
2022/08/22 02:44:55;;;;;;;2.17;1.15;;;24.80;97.20;;;;;;5100816;28;20036;-75
2022/08/22 02:47:28;;;;;;;4.43;1.67;;;24.80;97.20;;;;;;5067690;28;20147;-75
2022/08/22 02:50:09;;;;;;;3.17;1.40;;;24.80;97.20;;;;;;5067634;28;20068;-75
2022/08/22 02:52:42;;;;;;;2.92;1.35;;;24.80;97.20;;;;;;5084300;28;20040;-75
2022/08/22 02:55:27;;;;;;;4.50;1.30;;;24.80;97.20;;;;;;5068669;28;20136;-75
2022/08/22 02:58:25;;;;;;;3.42;2.17;;;24.70;97.10;;;;;;5084130;28;20044;-75
2022/08/22 03:01:01;;;;;;;3.38;1.35;;;24.70;97.20;;;;;;5064340;28;20117;-75
2022/08/22 03:03:37;;;;;;;2.33;1.55;;;24.70;97.20;;;;;;5076816;28;20044;-75
2022/08/22 03:06:27;;;;;;;1.70;1.00;;;24.70;97.20;;;;;;5031049;28;20160;-74
2022/08/22 03:09:12;;;;;;;3.03;1.48;;;24.70;97.30;;;;;;5054601;28;20140;-75
2022/08/22 03:11:45;;;;;;;3.88;1.83;;;24.70;97.30;;;;;;5063325;28;20152;-75
2022/08/22 03:14:38;;;;;;;2.85;1.25;;;24.60;97.30;;;;;;5047180;28;20161;-75
2022/08/22 03:17:13;;;;;;;4.50;1.70;;;24.60;97.30;;;;;;5049788;28;20449;-75
2022/08/22 03:19:53;;;;;;;2.37;1.40;;;24.60;97.40;;;;;;5030521;28;20078;-75
2022/08/22 03:22:40;;;;;;;4.55;1.35;;;24.60;97.40;;;;;;5079505;28;20478;-76
2022/08/22 03:25:25;;;;;;;4.38;1.45;;;24.60;97.50;;;;;;5046979;28;20103;-75
2022/08/22 03:28:03;;;;;;;3.25;1.63;;;24.50;97.50;;;;;;5047146;28;20053;-75
2022/08/22 03:30:44;;;;;;;8.25;1.70;;;24.50;97.60;;;;;;5063246;28;20045;-76
2022/08/22 03:33:16;;;;;;;4.78;1.40;;;24.50;97.70;;;;;;5063459;28;20056;-76
2022/08/22 03:35:44;;;;;;;2.50;1.23;;;24.50;97.80;;;;;;5045915;28;20049;-75
2022/08/22 03:38:33;;;;;;;4.75;1.92;;;24.50;97.90;;;;;;5048073;28;20356;-75
2022/08/22 03:41:23;;;;;;;2.72;1.40;;;24.50;98.00;;;;;;5079871;28;20045;-75
2022/08/22 03:44:01;;;;;;;2.10;1.52;;;24.50;98.10;;;;;;5063830;28;20049;-75
2022/08/22 03:46:50;;;;;;;3.30;1.35;;;24.50;98.20;;;;;;5047975;28;20048;-75
2022/08/22 03:49:55;;;;;;;4.30;1.60;;;24.50;98.30;;;;;;5062770;28;20479;-75
2022/08/22 03:53:13;;;;;;;4.07;1.58;;;24.50;98.50;;;;;;5078824;28;20139;-76
2022/08/22 03:55:49;;;;;;;4.25;1.80;;;24.50;98.60;;;;;;5046877;28;20041;-75
2022/08/22 03:58:41;;;;;;;3.33;1.52;;;24.40;98.70;;;;;;5079873;28;20049;-75
2022/08/22 04:01:42;;;;;;;6.93;1.83;;;24.50;98.80;;;;;;5063052;28;20051;-75
2022/08/22 04:04:10;;;;;;;2.35;1.20;;;24.40;98.80;;;;;;5058694;28;20044;-75
2022/08/22 04:06:54;;;;;;;2.95;1.65;;;24.50;98.80;;;;;;5083409;28;20498;-75
2022/08/22 04:09:40;;;;;;;4.32;1.60;;;24.50;98.80;;;;;;5066523;28;20525;-75
2022/08/22 04:12:45;;;;;;;2.08;1.20;;;24.50;98.90;;;;;;5067637;28;20132;-76
2022/08/22 04:15:33;;;;;;;2.67;1.60;;;24.50;99.00;;;;;;5067578;28;20408;-75
2022/08/22 04:18:19;;;;;;;3.22;1.60;;;24.60;99.10;;;;;;5083013;28;20076;-75
2022/08/22 04:21:08;;;;;;;3.00;1.67;;;24.60;99.00;;;;;;5082972;28;20106;-75
2022/08/22 04:24:10;;;;;;;3.58;1.50;;;24.60;99.10;;;;;;5067637;28;20475;-75
2022/08/22 04:26:51;;;;;;;5.10;1.92;;;24.60;99.10;;;;;;5083333;28;20044;-75
2022/08/22 04:29:52;;;;;;;4.60;1.65;;;24.70;99.10;;;;;;5065866;28;20049;-75
2022/08/22 04:32:40;;;;;;;4.75;2.63;;;24.70;99.10;;;;;;5032283;28;20501;-75
2022/08/22 04:35:26;;;;;;;3.15;1.77;;;24.70;99.10;;;;;;5083038;28;20040;-75
2022/08/22 04:38:26;;;;;;;4.10;1.63;;;24.80;99.20;;;;;;5082998;28;20057;-75
2022/08/22 04:41:40;;;;;;;3.10;2.00;;;24.80;99.20;;;;;;5049147;28;20061;-75
2022/08/22 04:44:16;;;;;;;3.63;1.75;;;24.90;99.20;;;;;;5065883;28;20052;-75
2022/08/22 04:46:57;;;;;;;3.72;2.45;;;25.10;99.10;;;;;;5067650;28;20495;-75
2022/08/22 04:49:36;;;;;;;4.63;1.83;;;25.20;99.10;;;;;;5067660;28;20491;-75
2022/08/22 04:52:41;;;;;;;2.80;1.55;;;25.30;98.90;;;;;;5086336;28;20147;-75
2022/08/22 04:55:11;;;;;;;3.78;1.80;;;25.50;98.80;;;;;;5069604;28;20074;-75
2022/08/22 04:57:48;;;;;;;4.85;2.22;;;25.60;98.60;;;;;;5103067;28;20056;-75
2022/08/22 05:00:17;;;;;;;4.93;1.70;;;25.70;98.50;;;;;;5086797;28;20056;-75
2022/08/22 05:02:50;;;;;;;2.25;1.33;;;25.90;98.50;;;;;;5071056;28;20041;-75
2022/08/22 05:05:26;;;;;;;4.80;1.98;;;26.00;98.30;;;;;;5053049;28;20079;-75
2022/08/22 05:07:58;;;;;;;3.78;2.05;;;26.10;98.30;;;;;;5070891;28;20047;-75
2022/08/22 05:10:39;;;;;;;7.78;1.80;;;26.10;98.30;;;;;;5103348;28;20048;-75
2022/08/22 05:13:14;;;;;;;9.50;2.30;;;26.30;98.30;;;;;;5102808;28;20384;-77
2022/08/22 05:15:47;;;;;;;7.30;2.37;;;26.30;98.20;;;;;;5082811;28;20076;-75
2022/08/22 05:18:44;;;;;;;4.05;1.83;;;26.50;98.10;;;;;;5085230;28;20295;-74
2022/08/22 05:21:11;;;;;;;;;;;26.60;98.10;;;;;;5057777;28;20045;-74
2022/08/22 05:23:53;;;;;;;4.70;1.83;;;26.60;98.00;;;;;;5083608;28;19924;-74
2022/08/22 05:26:21;;;;;;;4.32;1.65;;;26.70;98.00;;;;;;5062311;28;20068;-76
2022/08/22 05:28:53;;;;;;;4.70;2.75;;;26.80;97.90;;;;;;5049130;28;20052;-74
2022/08/22 05:31:26;;;;;;;2.88;1.80;;;26.90;97.90;;;;;;5067667;28;20494;-74
2022/08/22 05:34:10;;;;;;;5.70;1.88;;;27.10;97.90;;;;;;5081911;28;20047;-74
2022/08/22 05:36:47;;;;;;;6.10;1.90;;;27.20;97.70;;;;;;5048268;28;20527;-74
2022/08/22 05:39:22;;;;;;;4.80;2.25;;;27.30;97.60;;;;;;5081135;28;20057;-74
2022/08/22 05:41:53;;;;;;;4.78;2.03;;;27.50;97.50;;;;;;5080036;28;20483;-74
2022/08/22 05:44:22;;;;;;;3.97;1.80;;;27.70;97.30;;;;;;5068595;28;20048;-75
2022/08/22 05:47:04;;;;;;;4.47;1.67;;;27.90;97.20;;;;;;5068527;28;20037;-74
2022/08/22 05:49:58;;;;;;;7.72;2.10;;;28.10;97.00;;;;;;5052352;28;20147;-75
2022/08/22 05:52:38;;;;;;;3.42;1.52;;;28.30;96.90;;;;;;5070063;28;20467;-75
2022/08/22 05:55:30;;;;;;;3.83;1.67;;;28.40;96.70;;;;;;5068652;28;20043;-75
2022/08/22 05:58:22;;;;;;;6.38;2.40;;;28.60;96.70;;;;;;5051656;28;20076;-75
2022/08/22 06:01:00;;;;;;;5.35;2.33;;;28.70;96.60;;;;;;5051857;28;20056;-75
2022/08/22 06:03:39;;;;;;;6.38;2.10;;;28.90;96.50;;;;;;5068170;28;20041;-75
2022/08/22 06:06:15;;;;;;;3.97;1.95;;;28.90;96.50;;;;;;5052055;28;20145;-77
2022/08/22 06:09:07;;;;;;;7.85;1.55;;;28.90;96.50;;;;;;5068464;28;20413;-75
2022/08/22 06:12:10;;;;;;;2.65;1.55;;;29.00;96.50;;;;;;5068077;28;20174;-75
2022/08/22 06:14:49;;;;;;;3.92;1.98;;;29.20;96.40;;;;;;5040695;28;20040;-75
2022/08/22 06:17:25;;;;;;;4.45;2.40;;;29.30;96.20;;;;;;5051550;28;20048;-75
2022/08/22 06:19:54;;;;;;;6.25;1.90;;;29.50;96.00;;;;;;5069802;28;20133;-75
2022/08/22 06:22:28;;;;;;;3.72;1.83;;;29.50;95.90;;;;;;5067876;28;20045;-75
2022/08/22 06:25:11;;;;;;;6.55;1.80;;;29.50;95.70;;;;;;5035181;28;20101;-76
2022/08/22 06:27:40;;;;;;;4.25;1.67;;;29.50;95.70;;;;;;5067996;28;20052;-76
2022/08/22 06:30:12;;;;;;;3.00;1.50;;;29.50;95.70;;;;;;5068330;28;20080;-75
2022/08/22 06:32:44;;;;;;;4.72;1.60;;;29.50;95.70;;;;;;5067745;28;20044;-75
2022/08/22 06:35:27;;;;;;;4.90;1.55;;;29.70;95.50;;;;;;5067225;28;20458;-75
2022/08/22 06:37:58;;;;;;;4.70;2.08;;;29.80;95.40;;;;;;5084452;28;20055;-75
2022/08/22 06:40:27;;;;;;;4.35;1.92;;;29.90;95.50;;;;;;5051306;28;20524;-75
2022/08/22 06:42:57;;;;;;;2.67;1.48;;;29.90;95.00;;;;;;5051062;28;20048;-75
2022/08/22 06:45:30;;;;;;;3.92;1.55;;;29.90;95.10;;;;;;5067512;28;20055;-75
2022/08/22 06:48:07;;;;;;;4.72;1.50;;;30.00;95.00;;;;;;5051364;28;20430;-75
2022/08/22 06:50:41;;;;;;;6.72;1.60;;;30.20;94.70;;;;;;5067531;28;20141;-75
2022/08/22 06:53:15;;;;;;;4.10;1.65;;;30.30;94.40;;;;;;5084335;28;20052;-72
2022/08/22 06:55:51;;;;;;;5.75;1.60;;;30.40;94.30;;;;;;5101622;28;20136;-74
2022/08/22 06:58:43;;;;;;;4.57;1.70;;;30.50;94.10;;;;;;5084321;28;20047;-74
2022/08/22 07:01:15;;;;;;;3.65;2.00;;;30.60;94.00;;;;;;5067311;28;20454;-73
2022/08/22 07:03:48;;;;;;;4.35;1.70;;;30.70;93.70;;;;;;5067623;28;20076;-74
2022/08/22 07:06:21;;;;;;;5.00;1.80;;;30.80;93.50;;;;;;5051036;28;20512;-75
2022/08/22 07:08:52;;;;;;;4.45;1.67;;;30.90;93.30;;;;;;5083969;28;20125;-74
2022/08/22 07:11:40;;;;;;;7.03;2.28;;;31.00;92.60;;;;;;5100307;28;20049;-73
2022/08/22 07:14:13;;;;;;;5.47;1.98;;;31.00;91.50;;;;;;5067322;28;20049;-74
2022/08/22 07:16:50;;;;;;;4.15;2.05;;;31.10;91.70;;;;;;5100711;28;20486;-74
2022/08/22 07:19:44;;;;;;;3.10;1.63;;;31.20;91.30;;;;;;5083449;28;20048;-74
2022/08/22 07:22:24;;;;;;;5.10;1.75;;;31.20;91.00;;;;;;5050221;28;20040;-74
2022/08/22 07:25:03;;;;;;;5.00;1.40;;;31.30;91.00;;;;;;5050623;28;20112;-74
2022/08/22 07:28:12;;;;;;;3.08;1.40;;;31.30;90.40;;;;;;5076978;28;20789;-73
2022/08/22 07:30:48;;;;;;;3.53;1.70;;;31.40;90.60;;;;;;5046978;28;20064;-74
2022/08/22 07:33:38;;;;;;;4.63;1.38;;;31.50;90.60;;;;;;5030162;28;20048;-73
2022/08/22 07:36:46;;;;;;;4.00;1.88;;;31.60;90.60;;;;;;5048284;28;20037;-74
2022/08/22 07:39:38;;;;;;;5.63;1.40;;;31.60;90.40;;;;;;5063113;28;20090;-74
2022/08/22 07:42:31;;;;;;;3.60;1.40;;;31.70;90.40;;;;;;5048081;28;20048;-74
2022/08/22 07:45:19;;;;;;;4.97;1.48;;;31.90;90.00;;;;;;5079919;28;20164;-74
2022/08/22 07:47:53;;;;;;;2.28;1.20;;;32.00;89.60;;;;;;5063011;28;20484;-74
2022/08/22 07:50:27;;;;;;;2.50;1.33;;;32.10;90.10;;;;;;5048402;28;20060;-74
2022/08/22 07:53:23;;;;;;;3.45;1.50;;;32.10;90.40;;;;;;5046609;28;20072;-75
2022/08/22 07:55:54;;;;;;;4.60;1.30;;;32.10;90.00;;;;;;5032421;28;20086;-73
2022/08/22 07:58:25;;;;;;;5.60;1.30;;;32.20;90.10;;;;;;5080143;28;20037;-73
2022/08/22 08:00:54;;;;;;;2.50;1.17;;;32.20;90.30;;;;;;5046872;28;20068;-73
2022/08/22 08:03:24;;;;;;;2.72;1.38;;;32.30;90.20;;;;;;5047021;28;20060;-74
2022/08/22 08:05:54;;;;;;;2.58;1.20;;;32.30;90.00;;;;;;5063212;28;20406;-74
2022/08/22 08:08:54;;;;;;;4.00;1.70;;;32.10;90.30;;;;;;5079967;28;20040;-73
2022/08/22 08:11:29;;;;;;;4.30;1.20;;;32.10;90.50;;;;;;5047046;28;20486;-73
2022/08/22 08:14:04;;;;;;;3.95;1.20;;;32.20;90.10;;;;;;5081295;28;20052;-74
2022/08/22 08:16:46;;;;;;;6.35;1.65;;;32.30;89.50;;;;;;5063070;28;20048;-74
2022/08/22 08:19:17;;;;;;;4.25;1.83;;;32.40;88.50;;;;;;5062869;28;20824;-73
2022/08/22 08:21:55;;;;;;;2.78;1.20;;;32.50;86.90;;;;;;5080631;28;20049;-73
2022/08/22 08:24:31;;;;;;;1.90;1.02;;;32.50;87.60;;;;;;5084113;28;20080;-73
2022/08/22 08:30:07;;;;;;;3.85;1.10;;;32.70;87.60;;;;;;5083489;28;20070;-74
2022/08/22 08:32:38;;;;;;;2.35;1.38;;;32.80;87.90;;;;;;5067626;28;20119;-73
2022/08/22 08:35:28;;;;;;;4.05;1.40;;;32.70;86.90;;;;;;5083652;28;20044;-73
2022/08/22 08:38:25;;;;;;;2.05;1.15;;;32.60;85.80;;;;;;5034313;28;20463;-74
2022/08/22 08:40:53;;;;;;;6.72;1.15;;;32.40;86.20;;;;;;5016940;28;20053;-74
2022/08/22 08:43:28;;;;;;;4.57;1.33;;;32.30;86.30;;;;;;5066551;28;20147;-75
2022/08/22 08:46:08;;;;;;;8.75;1.73;;;32.30;86.40;;;;;;5049839;28;20411;-73
2022/08/22 08:49:02;;;;;;;4.47;1.30;;;32.20;86.40;;;;;;5050227;28;20053;-73
2022/08/22 08:52:01;;;;;;;2.28;1.10;;;32.30;86.80;;;;;;5050203;28;20159;-75
2022/08/22 08:54:50;;;;;;;2.38;1.17;;;32.30;86.80;;;;;;5049547;28;20051;-73
2022/08/22 08:57:21;;;;;;;3.88;1.52;;;32.50;86.70;;;;;;5050000;28;20049;-73
2022/08/22 09:00:21;;;;;;;5.15;1.55;;;32.50;86.00;;;;;;5049958;28;20049;-73
2022/08/22 09:03:14;;;;;;;3.85;1.55;;;32.40;85.30;;;;;;5049907;28;20112;-73
2022/08/22 09:05:57;;;;;;;3.65;1.63;;;32.50;84.60;;;;;;5066400;28;20395;-73
2022/08/22 09:08:49;;;;;;;8.07;1.75;;;32.50;85.90;;;;;;5066758;28;20045;-73
2022/08/22 09:12:00;;;;;;;2.00;1.05;;;32.40;85.00;;;;;;5068330;28;20058;-73
2022/08/22 09:14:45;;;;;;;6.32;1.63;;;32.50;84.90;;;;;;5032547;28;20056;-74
2022/08/22 09:17:31;;;;;;;3.25;1.52;;;32.50;84.40;;;;;;5088536;28;20154;-74
2022/08/22 09:20:20;;;;;;;3.83;1.38;;;32.60;84.50;;;;;;5070906;28;20056;-74
2022/08/22 09:23:06;;;;;;;3.55;1.90;;;32.70;85.00;;;;;;5088970;28;20037;-73
2022/08/22 09:25:37;;;;;;;6.15;1.90;;;32.70;85.60;;;;;;5071681;28;20415;-73
2022/08/22 09:28:31;;;;;;;3.90;1.73;;;32.80;85.80;;;;;;5071808;28;20495;-73
2022/08/22 09:31:28;;;;;;;4.00;2.03;;;32.80;85.90;;;;;;5058917;28;20052;-73
2022/08/22 09:34:11;;;;;;;4.07;2.28;;;32.70;86.30;;;;;;5070524;28;20045;-73
2022/08/22 09:37:16;;;;;;;10.32;2.25;;;32.70;86.50;;;;;;5105497;28;20102;-73
2022/08/22 09:40:11;;;;;;;8.82;1.80;;;32.80;86.50;;;;;;5071504;28;20044;-72
2022/08/22 09:43:00;;;;;;;4.13;2.33;;;32.80;86.20;;;;;;5103918;28;20043;-74
2022/08/22 09:45:51;;;;;;;3.80;2.08;;;32.70;86.00;;;;;;5054931;28;20971;-74
2022/08/22 09:48:43;;;;;;;3.50;2.08;;;32.40;85.80;;;;;;5071150;28;20052;-73
2022/08/22 09:51:28;;;;;;;4.28;2.08;;;32.40;86.70;;;;;;5104610;28;20106;-75
2022/08/22 09:54:14;;;;;;;3.63;1.98;;;32.30;87.10;;;;;;5071344;28;20155;-75
2022/08/22 09:56:55;;;;;;;3.85;1.77;;;32.20;88.00;;;;;;5071353;28;20052;-74
2022/08/22 09:59:55;;;;;;;6.97;2.25;;;32.40;87.90;;;;;;5068696;28;20064;-74
2022/08/22 10:02:44;;;;;;;5.28;2.08;;;32.30;88.10;;;;;;5078915;28;20459;-73
2022/08/22 10:05:18;;;;;;;6.88;1.92;;;32.40;87.80;;;;;;5087966;28;20044;-73
2022/08/22 10:07:57;;;;;;;3.53;2.05;;;32.50;87.10;;;;;;5072294;28;20044;-73
2022/08/22 10:11:06;;;;;;;4.40;2.00;;;32.50;87.30;;;;;;5105195;28;20041;-73
2022/08/22 10:13:39;;;;;;;5.57;2.30;;;32.60;87.90;;;;;;5064480;28;20052;-74
2022/08/22 10:16:33;;;;;;;2.78;1.55;;;32.60;87.50;;;;;;5072291;28;20040;-74
2022/08/22 10:19:15;;;;;;;4.45;2.17;;;32.60;86.90;;;;;;5071014;28;20051;-73
2022/08/22 10:22:05;;;;;;;5.05;2.35;;;32.40;87.70;;;;;;5104359;28;20049;-73
2022/08/22 10:24:54;;;;;;;6.30;3.13;;;32.30;88.50;;;;;;5087358;28;20457;-73
2022/08/22 10:28:00;;;;;;;4.45;2.05;;;32.40;88.50;;;;;;5104505;28;20044;-73
2022/08/22 10:30:41;;;;;;;3.83;2.50;;;32.50;87.60;;;;;;5055475;28;20155;-73
2022/08/22 10:33:15;;;;;;;5.20;2.40;;;32.30;87.80;;;;;;5087324;28;20083;-74
2022/08/22 10:35:50;;;;;;;7.78;1.85;;;32.20;87.60;;;;;;5087515;28;20045;-73
2022/08/22 10:38:34;;;;;;;;;;;32.00;88.00;;;;;;5087839;28;20052;-74
2022/08/22 10:41:21;;;;;;;3.80;2.17;;;32.00;88.80;;;;;;5053629;28;19927;-73
2022/08/22 10:43:51;;;;;;;6.53;2.42;;;32.30;88.20;;;;;;5070027;28;20051;-74
2022/08/22 10:46:44;;;;;;;6.50;2.10;;;32.40;88.00;;;;;;5102586;28;20044;-74
2022/08/22 10:49:24;;;;;;;4.65;2.25;;;32.30;87.40;;;;;;5086768;28;20036;-74
2022/08/22 10:52:06;;;;;;;5.20;2.15;;;32.50;87.20;;;;;;5083989;28;20044;-73
2022/08/22 10:55:16;;;;;;;3.35;2.25;;;32.50;86.70;;;;;;5070413;28;20048;-74
2022/08/22 10:57:43;;;;;;;5.78;2.20;;;32.40;86.70;;;;;;5053614;28;20506;-73
2022/08/22 11:00:25;;;;;;;5.32;2.03;;;32.30;87.20;;;;;;5074040;28;20099;-73
2022/08/22 11:03:16;;;;;;;6.35;2.30;;;32.40;87.20;;;;;;5100378;28;20061;-74
2022/08/22 11:05:52;;;;;;;4.65;2.13;;;32.30;88.40;;;;;;5074387;28;20114;-73
2022/08/22 11:08:38;;;;;;;3.55;2.65;;;32.30;88.50;;;;;;5053394;28;20407;-71
2022/08/22 11:11:34;;;;;;;5.05;2.20;;;32.20;88.40;;;;;;5065377;28;20068;-72
2022/08/22 11:14:33;;;;;;;6.88;3.30;;;32.10;87.80;;;;;;5044200;28;20048;-73
2022/08/22 11:17:12;;;;;;;4.80;1.90;;;32.30;88.20;;;;;;5078699;28;20045;-73
2022/08/22 11:19:54;;;;;;;5.22;2.40;;;32.50;87.20;;;;;;5076531;28;20399;-73
2022/08/22 11:22:28;;;;;;;5.93;2.92;;;32.50;86.80;;;;;;5069820;28;20040;-73
2022/08/22 11:25:11;;;;;;;4.65;2.78;;;32.40;86.60;;;;;;5041901;28;20106;-74
2022/08/22 11:27:58;;;;;;;4.05;2.80;;;32.40;86.70;;;;;;5049362;28;20499;-74
2022/08/22 11:30:25;;;;;;;4.80;1.98;;;32.20;86.60;;;;;;5077224;28;20074;-73
2022/08/22 11:32:59;;;;;;;4.20;2.33;;;32.00;86.20;;;;;;5034536;28;20137;-73
2022/08/22 11:35:34;;;;;;;6.70;2.47;;;32.00;86.80;;;;;;5053538;28;20040;-74
2022/08/22 11:38:15;;;;;;;3.80;2.40;;;32.00;86.00;;;;;;5071154;28;20569;-72
2022/08/22 11:41:04;;;;;;;3.30;2.15;;;32.00;85.50;;;;;;5058548;28;20059;-73
2022/08/22 11:44:05;;;;;;;6.20;2.97;;;32.20;85.10;;;;;;5068501;28;20048;-72
2022/08/22 11:46:39;;;;;;;5.30;2.83;;;32.10;85.20;;;;;;5099366;28;20045;-72
2022/08/22 11:49:20;;;;;;;3.92;2.53;;;32.00;85.10;;;;;;5060774;28;20090;-73
2022/08/22 11:52:20;;;;;;;3.63;2.30;;;31.90;85.70;;;;;;5056666;28;20037;-73
2022/08/22 11:54:51;;;;;;;13.55;3.22;;;31.70;85.90;;;;;;5064304;28;20721;-73
2022/08/22 11:57:43;;;;;;;6.90;2.75;;;31.70;86.30;;;;;;5065881;28;20047;-73
2022/08/22 12:00:41;;;;;;;3.65;2.53;;;31.80;86.20;;;;;;5068283;28;20041;-72
2022/08/22 12:03:31;;;;;;;5.35;2.80;;;31.80;85.70;;;;;;5051554;28;20048;-73
2022/08/22 12:06:11;;;;;;;5.60;2.95;;;31.90;85.80;;;;;;5101847;28;20036;-73
2022/08/22 12:08:49;;;;;;;7.78;3.95;;;31.80;85.50;;;;;;5085144;28;20052;-74
2022/08/22 12:11:25;;;;;;;5.13;2.45;;;31.80;84.80;;;;;;5069112;28;20080;-75
2022/08/22 12:14:14;;;;;;;5.68;2.17;;;31.70;84.80;;;;;;5068212;28;20102;-75
2022/08/22 12:17:13;;;;;;;5.35;2.50;;;31.50;83.40;;;;;;5067743;28;20040;-73
2022/08/22 12:20:05;;;;;;;4.60;1.98;;;31.30;84.40;;;;;;5101198;28;20055;-74
2022/08/22 12:22:45;;;;;;;5.78;3.13;;;31.40;85.10;;;;;;5083217;28;20056;-74
2022/08/22 12:25:28;;;;;;;5.05;2.78;;;31.40;85.40;;;;;;5068846;28;20036;-74
2022/08/22 12:28:15;;;;;;;13.65;3.60;;;31.50;85.60;;;;;;5101689;28;20045;-74
2022/08/22 12:30:55;;;;;;;5.43;2.30;;;31.60;86.40;;;;;;5068926;28;20053;-73
2022/08/22 12:33:48;;;;;;;7.32;2.70;;;31.60;85.80;;;;;;5067707;28;20060;-74
2022/08/22 12:36:43;;;;;;;5.32;2.03;;;31.60;84.90;;;;;;5100100;28;20566;-74
2022/08/22 12:39:23;;;;;;;3.95;2.10;;;31.60;84.40;;;;;;5101212;28;20489;-74
2022/08/22 12:42:06;;;;;;;6.50;2.70;;;31.50;84.90;;;;;;5084314;28;20056;-74
2022/08/22 12:44:59;;;;;;;5.63;2.80;;;31.40;84.50;;;;;;5066984;28;20044;-74
2022/08/22 12:47:44;;;;;;;4.30;2.88;;;31.30;85.60;;;;;;5068971;28;20064;-74
2022/08/22 12:50:18;;;;;;;3.00;2.10;;;31.20;85.40;;;;;;5067675;28;20410;-74
2022/08/22 12:52:47;;;;;;;3.40;2.50;;;31.30;85.00;;;;;;5068826;28;20037;-74
2022/08/22 12:55:49;;;;;;;4.20;2.30;;;31.30;85.30;;;;;;5068677;28;20052;-73
2022/08/22 12:58:20;;;;;;;6.03;2.53;;;31.30;84.80;;;;;;5086698;28;20052;-74
2022/08/22 13:00:49;;;;;;;8.10;2.85;;;31.40;85.00;;;;;;5071697;28;20044;-74
2022/08/22 13:03:27;;;;;;;6.10;2.35;;;31.40;85.90;;;;;;5068805;28;20044;-74
2022/08/22 13:06:01;;;;;;;3.95;2.28;;;31.40;86.20;;;;;;5084405;28;20098;-74
2022/08/22 13:08:33;;;;;;;4.55;2.20;;;31.40;86.00;;;;;;5070406;28;20040;-74
2022/08/22 13:11:07;;;;;;;4.57;2.30;;;31.40;85.60;;;;;;5054546;28;20056;-74
2022/08/22 13:13:51;;;;;;;5.93;2.95;;;31.30;85.00;;;;;;5070842;28;20109;-75
2022/08/22 13:16:21;;;;;;;5.75;2.58;;;31.30;85.00;;;;;;5087697;28;20060;-74
2022/08/22 13:18:57;;;;;;;4.15;1.95;;;31.20;85.10;;;;;;5104063;28;20045;-74
2022/08/22 13:21:31;;;;;;;3.85;2.88;;;31.20;85.60;;;;;;5071904;28;20070;-75
2022/08/22 13:24:06;;;;;;;3.53;2.30;;;31.20;85.50;;;;;;5054243;28;20063;-74
2022/08/22 13:26:34;;;;;;;3.60;2.00;;;31.20;85.40;;;;;;5072365;28;20441;-74
2022/08/22 13:29:15;;;;;;;3.13;1.77;;;31.20;86.20;;;;;;5086997;28;20088;-74
2022/08/22 13:31:59;;;;;;;6.18;1.88;;;31.00;85.90;;;;;;5070818;28;20044;-74
2022/08/22 13:34:29;;;;;;;4.60;1.80;;;30.90;86.30;;;;;;5071863;28;20044;-75
2022/08/22 13:37:01;;;;;;;3.45;1.83;;;30.80;86.40;;;;;;5069764;28;20125;-74
2022/08/22 13:39:38;;;;;;;3.42;2.08;;;30.80;87.20;;;;;;5053527;28;20080;-75
2022/08/22 13:42:14;;;;;;;4.05;2.10;;;30.90;87.10;;;;;;5087363;28;20089;-74
2022/08/22 13:44:50;;;;;;;3.33;2.13;;;31.00;86.60;;;;;;5069893;28;20056;-74
2022/08/22 13:47:24;;;;;;;2.83;1.92;;;30.90;86.40;;;;;;5103494;28;20410;-74
2022/08/22 13:50:15;;;;;;;10.13;2.45;;;31.00;86.40;;;;;;5070348;28;20063;-74
2022/08/22 13:52:49;;;;;;;3.90;2.45;;;31.00;86.90;;;;;;5070472;28;20052;-74
2022/08/22 13:55:34;;;;;;;4.22;1.75;;;30.90;87.20;;;;;;5071343;28;20041;-74
2022/08/22 13:58:23;;;;;;;4.68;1.80;;;31.00;87.90;;;;;;5071323;28;20044;-74
2022/08/22 14:01:29;;;;;;;5.80;2.00;;;30.80;87.70;;;;;;5087052;28;20412;-74
2022/08/22 14:04:08;;;;;;;2.42;1.40;;;30.80;87.70;;;;;;5086562;28;20044;-74
2022/08/22 14:06:50;;;;;;;4.07;1.48;;;30.70;88.30;;;;;;5086611;28;20092;-74
2022/08/22 14:09:25;;;;;;;4.13;2.03;;;30.70;88.00;;;;;;5053026;28;20049;-74
2022/08/22 14:12:02;;;;;;;3.22;1.45;;;30.70;88.50;;;;;;5086780;28;20055;-74
2022/08/22 14:14:34;;;;;;;4.05;1.85;;;30.70;88.20;;;;;;5053935;28;20048;-74